createdAt,value
2022-10-11T00:02:11.189Z,98.95
2022-10-11T00:04:38.105Z,38.15
2022-10-11T00:07:05.122Z,67.25
2022-10-11T00:09:31.975Z,31.80
2022-10-11T00:11:58.753Z,38.83
2022-10-11T00:14:26.295Z,23.58
2022-10-11T00:16:53.587Z,24.10
2022-10-11T00:19:20.686Z,15.52
2022-10-11T00:21:47.890Z,17.02
2022-10-11T00:24:16.146Z,14.95
2022-10-11T00:26:46.795Z,10.45
2022-10-11T00:29:14.397Z,28.83
2022-10-11T00:31:41.202Z,22.98
2022-10-11T00:34:08.702Z,50.30
2022-10-11T00:36:35.837Z,69.57
2022-10-11T00:39:03.726Z,49.90
2022-10-11T00:41:30.616Z,31.23
2022-10-11T00:44:11.583Z,19.95
2022-10-11T00:46:39.140Z,17.13
2022-10-11T00:49:13.965Z,14.15
2022-10-11T00:51:49.665Z,11.88
2022-10-11T00:54:19.312Z,12.77
2022-10-11T00:56:49.371Z,9.85
2022-10-11T00:59:22.834Z,12.75
2022-10-11T01:01:50.068Z,16.45
2022-10-11T01:04:16.885Z,14.75
2022-10-11T01:06:43.982Z,34.15
2022-10-11T01:09:12.038Z,51.67
2022-10-11T01:11:41.565Z,47.63
2022-10-11T01:15:05.456Z,33.90
2022-10-11T01:17:35.219Z,36.20
2022-10-11T01:20:26.396Z,16.33
2022-10-11T01:23:30.794Z,13.10
2022-10-11T01:26:18.797Z,12.43
2022-10-11T01:28:51.707Z,11.25
2022-10-11T01:31:52.429Z,12.23
2022-10-11T01:34:21.893Z,27.35
2022-10-11T01:37:14.736Z,27.70
2022-10-11T01:39:48.674Z,28.92
2022-10-11T01:42:16.936Z,68.05
2022-10-11T01:44:47.056Z,84.45
2022-10-11T01:47:14.211Z,43.92
2022-10-11T01:49:41.972Z,24.42
2022-10-11T01:52:11.009Z,30.40
2022-10-11T01:55:08.777Z,21.30
2022-10-11T01:57:39.660Z,14.52
2022-10-11T02:00:19.630Z,9.82
2022-10-11T02:03:20.183Z,13.18
2022-10-11T02:05:50.040Z,14.32
2022-10-11T02:08:42.813Z,17.55
2022-10-11T02:11:28.323Z,42.67
2022-10-11T02:14:18.678Z,47.90
2022-10-11T02:16:54.753Z,61.60
2022-10-11T02:19:26.814Z,70.03
2022-10-11T02:21:57.121Z,39.78
2022-10-11T02:24:35.036Z,27.08
2022-10-11T02:27:03.515Z,65.57
2022-10-11T02:29:33.321Z,55.20
2022-10-11T02:32:00.626Z,36.85
2022-10-11T02:34:27.627Z,45.50
2022-10-11T02:37:36.014Z,19.63
2022-10-11T02:40:07.270Z,21.17
2022-10-11T02:42:38.867Z,14.93
2022-10-11T02:45:39.111Z,27.77
2022-10-11T02:48:07.289Z,12.93
2022-10-11T02:50:34.115Z,12.07
2022-10-11T02:53:00.902Z,14.73
2022-10-11T02:55:28.126Z,13.35
2022-10-11T02:57:54.928Z,21.58
2022-10-11T03:00:21.745Z,14.43
2022-10-11T03:02:48.747Z,14.45
2022-10-11T03:05:15.792Z,18.48
2022-10-11T03:07:42.595Z,28.90
2022-10-11T03:10:12.397Z,20.33
2022-10-11T03:12:39.228Z,27.95
2022-10-11T03:15:06.570Z,42.60
2022-10-11T03:17:37.466Z,32.80
2022-10-11T03:20:07.752Z,17.25
2022-10-11T03:22:35.003Z,14.10
2022-10-11T03:25:04.355Z,13.60
2022-10-11T03:27:32.928Z,13.63
2022-10-11T03:30:00.562Z,12.05
2022-10-11T03:32:27.736Z,14.73
2022-10-11T03:34:54.544Z,12.93
2022-10-11T03:37:22.013Z,13.52
2022-10-11T03:39:48.854Z,14.50
2022-10-11T03:42:15.692Z,12.65
2022-10-11T03:44:42.838Z,19.17
2022-10-11T03:47:09.902Z,16.55
2022-10-11T03:49:41.341Z,11.38
2022-10-11T03:52:11.033Z,12.55
2022-10-11T03:54:37.939Z,13.43
2022-10-11T03:57:04.818Z,14.95
2022-10-11T03:59:32.098Z,14.02
2022-10-11T04:01:59.269Z,19.17
2022-10-11T04:04:26.317Z,13.63
2022-10-11T04:06:53.599Z,14.10
2022-10-11T04:09:20.403Z,16.77
2022-10-11T04:11:47.212Z,14.68
2022-10-11T04:14:14.590Z,11.32
2022-10-11T04:16:41.417Z,13.40
2022-10-11T04:19:08.339Z,10.40
2022-10-11T04:21:35.720Z,14.23
2022-10-11T04:24:02.535Z,9.63
2022-10-11T04:26:29.913Z,36.78
2022-10-11T04:28:57.013Z,22.08
2022-10-11T04:31:23.971Z,29.95
2022-10-11T04:33:50.889Z,17.15
2022-10-11T04:36:17.899Z,18.85
2022-10-11T04:38:44.776Z,14.82
2022-10-11T04:41:13.795Z,12.65
2022-10-11T04:43:40.890Z,18.00
2022-10-11T04:46:09.228Z,15.18
2022-10-11T04:48:36.548Z,12.13
2022-10-11T04:51:03.946Z,10.23
2022-10-11T04:53:30.740Z,14.32
2022-10-11T04:56:02.032Z,12.30
2022-10-11T04:58:30.758Z,9.27
2022-10-11T05:00:57.796Z,11.60
2022-10-11T05:03:25.279Z,11.30
2022-10-11T05:05:53.250Z,15.30
2022-10-11T05:08:20.247Z,10.45
2022-10-11T05:11:00.813Z,10.50
2022-10-11T05:13:28.813Z,15.00
2022-10-11T05:15:55.633Z,11.93
2022-10-11T05:18:22.905Z,10.98
2022-10-11T05:20:58.461Z,12.10
2022-10-11T05:23:25.331Z,12.70
2022-10-11T05:25:52.306Z,14.18
2022-10-11T05:28:19.215Z,11.20
2022-10-11T05:30:46.225Z,11.77
2022-10-11T05:33:13.560Z,11.20
2022-10-11T05:35:40.350Z,13.48
2022-10-11T05:38:08.568Z,13.07
2022-10-11T05:40:37.557Z,11.98
2022-10-11T05:43:04.574Z,13.85
2022-10-11T05:45:33.062Z,10.80
2022-10-11T05:47:59.948Z,12.30
2022-10-11T05:50:27.059Z,10.68
2022-10-11T05:52:54.150Z,14.70
2022-10-11T05:55:20.942Z,10.82
2022-10-11T05:57:48.446Z,13.98
2022-10-11T06:00:16.086Z,15.25
2022-10-11T06:02:43.192Z,15.15
2022-10-11T06:05:10.105Z,11.45
2022-10-11T06:07:37.883Z,10.95
2022-10-11T06:10:05.234Z,11.23
2022-10-11T06:12:32.684Z,13.35
2022-10-11T06:15:00.179Z,10.88
2022-10-11T06:17:27.380Z,11.00
2022-10-11T06:19:54.197Z,15.35
2022-10-11T06:22:21.304Z,13.45
2022-10-11T06:24:48.138Z,11.23
2022-10-11T06:27:14.963Z,13.15
2022-10-11T06:29:42.006Z,17.90
2022-10-11T06:32:09.012Z,13.82
2022-10-11T06:34:37.271Z,12.90
2022-10-11T06:37:04.039Z,14.95
2022-10-11T06:39:30.904Z,12.07
2022-10-11T06:41:57.983Z,13.70
2022-10-11T06:44:26.478Z,13.18
2022-10-11T06:46:53.438Z,34.45
2022-10-11T06:49:23.284Z,64.68
2022-10-11T06:51:51.085Z,18.52
2022-10-11T06:54:18.139Z,18.23
2022-10-11T06:56:45.838Z,14.73
2022-10-11T06:59:13.562Z,15.35
2022-10-11T07:01:41.159Z,16.83
2022-10-11T07:04:23.191Z,14.48
2022-10-11T07:06:50.146Z,18.13
2022-10-11T07:09:17.383Z,22.23
2022-10-11T07:11:44.411Z,15.90
2022-10-11T07:14:11.466Z,14.45
2022-10-11T07:16:38.450Z,15.75
2022-10-11T07:19:07.801Z,18.80
2022-10-11T07:21:35.491Z,16.80
2022-10-11T07:24:03.818Z,21.15
2022-10-11T07:26:36.784Z,17.17
2022-10-11T07:29:06.884Z,14.93
2022-10-11T07:31:33.796Z,17.27
2022-10-11T07:34:00.668Z,15.30
2022-10-11T07:36:27.669Z,18.63
2022-10-11T07:38:54.483Z,18.13
2022-10-11T07:41:21.556Z,22.63
2022-10-11T07:43:49.787Z,19.40
2022-10-11T07:46:18.431Z,19.33
2022-10-11T07:48:45.492Z,20.10
2022-10-11T07:51:18.628Z,18.13
2022-10-11T07:53:47.478Z,21.27
2022-10-11T07:56:18.269Z,20.00
2022-10-11T07:58:49.922Z,20.73
2022-10-11T08:01:17.474Z,19.27
2022-10-11T08:03:44.419Z,19.38
2022-10-11T08:06:13.036Z,19.88
2022-10-11T08:08:40.279Z,21.17
2022-10-11T08:11:07.573Z,23.52
2022-10-11T08:13:35.077Z,23.00
2022-10-11T08:16:10.188Z,22.33
2022-10-11T08:18:37.151Z,27.25
2022-10-11T08:21:09.656Z,23.73
2022-10-11T08:23:36.875Z,23.17
2022-10-11T08:26:04.781Z,27.02
2022-10-11T08:28:32.499Z,21.33
2022-10-11T08:30:59.504Z,19.52
2022-10-11T08:33:26.722Z,23.67
2022-10-11T08:35:54.454Z,20.08
2022-10-11T08:38:21.807Z,22.60
2022-10-11T08:40:51.137Z,20.25
2022-10-11T08:43:31.099Z,26.15
2022-10-11T08:46:01.118Z,18.60
2022-10-11T08:48:43.659Z,26.85
2022-10-11T08:51:25.572Z,20.30
2022-10-11T08:54:08.167Z,17.88
2022-10-11T08:56:39.984Z,21.50
2022-10-11T08:59:13.064Z,23.25
2022-10-11T09:02:21.583Z,21.98
2022-10-11T09:04:51.279Z,22.30
2022-10-11T09:07:27.227Z,18.95
2022-10-11T09:10:06.858Z,20.77
2022-10-11T09:12:49.497Z,23.02
2022-10-11T09:15:31.270Z,23.08
2022-10-11T09:18:09.814Z,21.42
2022-10-11T09:20:48.154Z,22.23
2022-10-11T09:23:42.204Z,22.30
2022-10-11T09:26:14.916Z,20.33
2022-10-11T09:29:00.149Z,20.85
2022-10-11T09:31:29.382Z,25.88
2022-10-11T09:33:56.644Z,25.80
2022-10-11T09:36:36.375Z,26.88
2022-10-11T09:39:29.631Z,24.73
2022-10-11T09:42:07.821Z,25.10
2022-10-11T09:44:39.577Z,29.13
2022-10-11T09:47:07.564Z,29.20
2022-10-11T09:49:47.961Z,24.73
2022-10-11T09:52:17.913Z,26.35
2022-10-11T09:54:47.059Z,23.27
2022-10-11T09:57:26.439Z,27.10
2022-10-11T10:00:12.003Z,24.13
2022-10-11T10:02:44.869Z,21.70
2022-10-11T10:05:11.662Z,27.60
2022-10-11T10:07:41.010Z,31.58
2022-10-11T10:10:28.975Z,28.63
2022-10-11T10:12:59.441Z,27.05
2022-10-11T10:15:30.758Z,27.58
2022-10-11T10:17:57.956Z,25.77
2022-10-11T10:20:31.800Z,29.70
2022-10-11T10:23:04.978Z,29.73
2022-10-11T10:25:37.446Z,23.27
2022-10-11T10:28:24.676Z,27.42
2022-10-11T10:30:56.938Z,26.23
2022-10-11T10:33:34.898Z,23.88
2022-10-11T10:36:15.586Z,31.92
2022-10-11T10:38:59.689Z,24.27
2022-10-11T10:41:26.594Z,36.53
2022-10-11T10:43:57.381Z,22.00
2022-10-11T10:46:47.911Z,27.50
2022-10-11T10:52:22.597Z,24.40
2022-10-11T10:55:04.377Z,25.83
2022-10-11T10:57:52.898Z,20.83
2022-10-11T11:00:21.953Z,27.35
2022-10-11T11:02:55.152Z,24.17
2022-10-11T11:05:48.514Z,25.05
2022-10-11T11:08:30.407Z,23.48
2022-10-11T11:11:09.037Z,27.42
2022-10-11T11:13:56.867Z,27.42
2022-10-11T11:16:46.869Z,26.17
2022-10-11T11:19:31.060Z,29.38
2022-10-11T11:22:11.375Z,25.33
2022-10-11T11:24:59.936Z,27.50
2022-10-11T11:27:54.075Z,19.30
2022-10-11T11:30:23.548Z,29.02
2022-10-11T11:33:02.739Z,24.50
2022-10-11T11:35:37.255Z,25.63
2022-10-11T11:38:12.252Z,22.70
2022-10-11T11:40:49.246Z,21.98
2022-10-11T11:43:26.351Z,15.57
2022-10-11T11:46:04.613Z,24.92
2022-10-11T11:48:31.715Z,17.08
2022-10-11T11:51:17.877Z,18.25
2022-10-11T11:53:48.502Z,17.13
2022-10-11T11:56:33.611Z,15.32
2022-10-11T11:59:06.905Z,15.65
2022-10-11T12:01:47.832Z,23.27
2022-10-11T12:04:31.964Z,23.75
2022-10-11T12:07:15.974Z,18.98
2022-10-11T12:09:46.154Z,16.25
2022-10-11T12:12:31.151Z,19.02
2022-10-11T12:15:05.793Z,19.05
2022-10-11T12:17:32.660Z,15.85
2022-10-11T12:20:08.565Z,17.70
2022-10-11T12:22:37.485Z,17.27
2022-10-11T12:25:13.765Z,26.77
2022-10-11T12:27:57.409Z,21.35
2022-10-11T12:30:47.092Z,17.38
2022-10-11T12:33:22.077Z,18.30
2022-10-11T12:35:55.064Z,16.92
2022-10-11T12:38:39.974Z,16.95
2022-10-11T12:41:10.002Z,17.00
2022-10-11T12:44:14.325Z,16.48
2022-10-11T12:46:57.967Z,17.75
2022-10-11T12:49:27.991Z,15.77
2022-10-11T12:52:04.910Z,16.52
2022-10-11T12:57:59.961Z,18.02
2022-10-11T13:04:05.769Z,26.92
2022-10-11T13:06:38.198Z,18.02
2022-10-11T13:09:11.119Z,18.70
2022-10-11T13:11:41.244Z,19.35
2022-10-11T13:14:11.683Z,20.45
2022-10-11T13:17:04.269Z,16.15
2022-10-11T13:19:35.094Z,19.05
2022-10-11T13:22:15.435Z,15.32
2022-10-11T13:24:42.769Z,13.75
2022-10-11T13:27:29.886Z,11.75
2022-10-11T13:30:00.480Z,13.18
2022-10-11T13:32:30.319Z,12.38
2022-10-11T13:35:01.881Z,9.25
2022-10-11T13:37:30.176Z,13.75
2022-10-11T13:39:58.013Z,15.25
2022-10-11T13:42:30.953Z,9.05
2022-10-11T13:44:59.471Z,11.93
2022-10-11T13:47:29.100Z,13.10
2022-10-11T13:50:09.151Z,13.73
2022-10-11T13:52:36.454Z,14.68
2022-10-11T13:55:03.283Z,13.50
2022-10-11T13:57:38.949Z,10.18
2022-10-11T14:00:11.090Z,8.90
2022-10-11T14:02:39.139Z,12.20
2022-10-11T14:05:06.529Z,10.10
2022-10-11T14:07:37.730Z,13.40
2022-10-11T14:10:05.939Z,15.43
2022-10-11T14:12:40.493Z,12.13
2022-10-11T14:15:24.316Z,7.75
2022-10-11T14:17:51.560Z,10.73
2022-10-11T14:20:33.219Z,12.88
2022-10-11T14:23:00.454Z,10.90
2022-10-11T14:25:27.274Z,12.50
2022-10-11T14:27:57.496Z,10.15
2022-10-11T14:30:27.301Z,10.55
2022-10-11T14:32:56.522Z,11.43
2022-10-11T14:35:29.701Z,8.95
2022-10-11T14:37:57.116Z,10.90
2022-10-11T14:40:26.137Z,10.18
2022-10-11T14:42:53.357Z,12.93
2022-10-11T14:45:21.367Z,8.02
2022-10-11T14:47:49.424Z,13.63
2022-10-11T14:50:21.292Z,10.23
2022-10-11T14:52:48.392Z,12.82
2022-10-11T14:55:15.276Z,8.48
2022-10-11T14:57:42.559Z,7.55
2022-10-11T15:00:22.336Z,8.90
2022-10-11T15:02:54.299Z,8.05
2022-10-11T15:05:22.317Z,10.10
2022-10-11T15:07:49.943Z,7.07
2022-10-11T15:10:16.763Z,12.00
2022-10-11T15:12:43.751Z,13.05
2022-10-11T15:15:16.083Z,9.00
2022-10-11T15:17:43.674Z,11.23
2022-10-11T15:20:20.744Z,9.95
2022-10-11T15:22:48.709Z,9.70
2022-10-11T15:25:15.765Z,8.20
2022-10-11T15:27:42.982Z,10.88
2022-10-11T15:30:14.659Z,12.70
2022-10-11T15:32:41.653Z,8.90
2022-10-11T15:35:08.863Z,11.38
2022-10-11T15:37:37.449Z,22.00
2022-10-11T15:40:35.440Z,14.55
2022-10-11T15:43:03.137Z,23.58
2022-10-11T15:45:30.402Z,13.05
2022-10-11T15:47:57.850Z,15.43
2022-10-11T15:50:34.602Z,20.17
2022-10-11T15:53:14.453Z,29.00
2022-10-11T15:55:43.825Z,34.13
2022-10-11T15:58:16.543Z,40.42
2022-10-11T16:00:44.634Z,18.95
2022-10-11T16:03:13.262Z,97.20
2022-10-11T16:05:40.421Z,96.97
2022-10-11T16:08:07.861Z,20.85
2022-10-11T16:10:35.015Z,16.00
2022-10-11T16:13:02.191Z,17.70
2022-10-11T16:15:29.639Z,38.85
2022-10-11T16:17:56.533Z,63.83
2022-10-11T16:20:25.766Z,54.85
2022-10-11T16:22:53.846Z,54.60
2022-10-11T16:25:21.907Z,37.60
2022-10-11T16:27:49.416Z,27.73
2022-10-11T16:30:17.356Z,25.02
2022-10-11T16:32:44.957Z,24.65
2022-10-11T16:35:13.287Z,22.63
2022-10-11T16:37:40.240Z,21.60
2022-10-11T16:40:08.366Z,68.35
2022-10-11T16:42:35.384Z,85.43
2022-10-11T16:45:02.419Z,85.75
2022-10-11T16:47:29.251Z,28.73
2022-10-11T16:49:56.289Z,47.50
2022-10-11T16:52:23.346Z,44.70
2022-10-11T16:54:50.225Z,38.35
2022-10-11T16:57:20.830Z,61.25
2022-10-11T16:59:47.676Z,43.70
2022-10-11T17:02:18.082Z,43.80
2022-10-11T17:04:45.462Z,55.03
2022-10-11T17:07:13.111Z,27.02
2022-10-11T17:09:44.035Z,25.98
2022-10-11T17:12:15.105Z,30.10
2022-10-11T17:14:42.841Z,27.80
2022-10-11T17:17:10.953Z,23.13
2022-10-11T17:19:45.093Z,29.08
2022-10-11T17:22:14.996Z,23.05
2022-10-11T17:24:42.203Z,29.25
2022-10-11T17:27:09.578Z,48.05
2022-10-11T17:29:36.792Z,50.08
2022-10-11T17:32:04.140Z,49.38
2022-10-11T17:34:31.359Z,49.83
2022-10-11T17:36:58.211Z,193.63
2022-10-11T17:39:25.879Z,100.10
2022-10-11T17:41:54.218Z,108.20
2022-10-11T17:44:21.781Z,64.47
2022-10-11T17:46:49.479Z,47.30
2022-10-11T17:49:16.630Z,32.05
2022-10-11T17:51:43.972Z,26.35
2022-10-11T17:54:12.840Z,26.88
2022-10-11T17:56:41.535Z,26.77
2022-10-11T17:59:15.923Z,25.17
2022-10-11T18:01:42.829Z,18.08
2022-10-11T18:04:16.493Z,19.00
2022-10-11T18:06:45.174Z,28.08
2022-10-11T18:09:14.571Z,46.60
2022-10-11T18:11:41.608Z,95.32
2022-10-11T18:14:09.499Z,85.68
2022-10-11T18:16:37.647Z,57.50
2022-10-11T18:19:07.543Z,58.72
2022-10-11T18:21:35.134Z,46.97
2022-10-11T18:24:03.519Z,40.63
2022-10-11T18:26:31.031Z,39.22
2022-10-11T18:28:58.778Z,33.58
2022-10-11T18:31:28.263Z,52.35
2022-10-11T18:33:55.733Z,27.83
2022-10-11T18:36:25.400Z,25.10
2022-10-11T18:38:58.658Z,26.42
2022-10-11T18:41:31.655Z,24.17
2022-10-11T18:44:04.745Z,33.40
2022-10-11T18:46:33.494Z,43.40
2022-10-11T18:49:02.411Z,61.92
2022-10-11T18:51:35.237Z,61.63
2022-10-11T18:54:03.148Z,48.10
2022-10-11T18:56:31.347Z,45.85
2022-10-11T18:58:58.781Z,42.42
2022-10-11T19:01:31.464Z,44.20
2022-10-11T19:04:00.604Z,40.47
2022-10-11T19:06:31.154Z,32.08
2022-10-11T19:09:04.687Z,27.58
2022-10-11T19:11:31.855Z,47.50
2022-10-11T19:13:59.921Z,27.90
2022-10-11T19:16:27.933Z,27.52
2022-10-11T19:18:55.501Z,26.30
2022-10-11T19:21:23.103Z,28.38
2022-10-11T19:23:50.702Z,29.83
2022-10-11T19:26:24.314Z,27.98
2022-10-11T19:28:59.215Z,36.47
2022-10-11T19:31:26.985Z,31.65
2022-10-11T19:33:54.381Z,34.95
2022-10-11T19:36:21.220Z,36.33
2022-10-11T19:38:49.921Z,32.60
2022-10-11T19:41:19.104Z,30.83
2022-10-11T19:43:46.698Z,38.10
2022-10-11T19:46:20.172Z,33.30
2022-10-11T19:48:54.437Z,37.75
2022-10-11T19:51:23.810Z,33.13
2022-10-11T19:54:01.831Z,37.97
2022-10-11T19:56:31.377Z,37.58
2022-10-11T19:58:58.361Z,39.03
2022-10-11T20:01:27.175Z,51.10
2022-10-11T20:03:59.114Z,48.97
2022-10-11T20:06:28.300Z,35.72
2022-10-11T20:09:16.749Z,36.42
2022-10-11T20:11:42.897Z,31.30
2022-10-11T20:14:09.724Z,30.40
2022-10-11T20:16:36.872Z,32.97
2022-10-11T20:19:04.008Z,29.88
2022-10-11T20:21:31.180Z,31.27
2022-10-11T20:24:03.331Z,29.55
2022-10-11T20:26:31.069Z,36.90
2022-10-11T20:28:58.437Z,35.95
2022-10-11T20:31:31.425Z,38.63
2022-10-11T20:34:01.823Z,28.90
2022-10-11T20:36:30.247Z,29.20
2022-10-11T20:38:58.441Z,30.25
2022-10-11T20:41:27.805Z,30.60
2022-10-11T20:43:56.684Z,26.98
2022-10-11T20:46:28.191Z,24.38
2022-10-11T20:49:02.096Z,31.38
2022-10-11T20:51:34.096Z,32.90
2022-10-11T20:54:02.090Z,31.75
2022-10-11T20:56:29.873Z,26.25
2022-10-11T20:58:58.237Z,30.30
2022-10-11T21:01:28.064Z,22.45
2022-10-11T21:03:57.595Z,26.15
2022-10-11T21:06:25.451Z,25.52
2022-10-11T21:08:55.227Z,29.65
2022-10-11T21:11:26.579Z,27.75
2022-10-11T21:13:57.117Z,28.27
2022-10-11T21:16:24.823Z,27.48
2022-10-11T21:18:53.280Z,31.20
2022-10-11T21:21:21.092Z,28.02
2022-10-11T21:23:47.990Z,24.83
2022-10-11T21:26:17.975Z,25.73
2022-10-11T21:28:46.407Z,29.02
2022-10-11T21:31:15.330Z,29.20
2022-10-11T21:33:42.951Z,31.15
2022-10-11T21:36:16.071Z,29.90
2022-10-11T21:38:43.545Z,34.08
2022-10-11T21:41:12.420Z,24.13
2022-10-11T21:43:40.133Z,24.77
2022-10-11T21:46:10.873Z,27.08
2022-10-11T21:48:38.099Z,18.45
2022-10-11T21:51:05.493Z,23.83
2022-10-11T21:53:32.390Z,21.50
2022-10-11T21:56:00.240Z,22.85
2022-10-11T21:58:27.468Z,25.75
2022-10-11T22:00:54.378Z,26.33
2022-10-11T22:03:21.576Z,23.08
2022-10-11T22:05:48.655Z,22.95
2022-10-11T22:08:15.771Z,23.40
2022-10-11T22:10:44.506Z,20.98
2022-10-11T22:13:11.693Z,28.63
2022-10-11T22:15:39.363Z,27.27
2022-10-11T22:18:06.517Z,24.63
2022-10-11T22:20:33.489Z,24.85
2022-10-11T22:23:00.459Z,22.90
2022-10-11T22:25:27.502Z,21.95
2022-10-11T22:27:54.392Z,23.63
2022-10-11T22:30:21.247Z,21.67
2022-10-11T22:32:50.860Z,23.23
2022-10-11T22:35:18.262Z,28.80
2022-10-11T22:37:45.226Z,28.13
2022-10-11T22:40:12.339Z,24.08
2022-10-11T22:42:39.287Z,24.30
2022-10-11T22:45:06.580Z,26.60
2022-10-11T22:47:33.921Z,26.42
2022-10-11T22:50:00.973Z,25.92
2022-10-11T22:52:28.621Z,26.08
2022-10-11T22:54:55.653Z,38.30
2022-10-11T22:57:22.870Z,31.45
2022-10-11T22:59:49.765Z,27.13
2022-10-11T23:02:16.868Z,26.27
2022-10-11T23:04:43.757Z,25.67
2022-10-11T23:07:10.602Z,24.77
2022-10-11T23:09:37.660Z,21.52
2022-10-11T23:12:04.842Z,23.02
2022-10-11T23:14:31.698Z,22.67
2022-10-11T23:16:58.819Z,21.25
2022-10-11T23:19:25.644Z,24.10
2022-10-11T23:21:52.541Z,21.67
2022-10-11T23:24:19.726Z,23.15
2022-10-11T23:26:46.559Z,28.13
2022-10-11T23:29:13.427Z,27.25
2022-10-11T23:31:40.455Z,24.95
2022-10-11T23:34:07.277Z,39.30
2022-10-11T23:36:34.164Z,38.58
2022-10-11T23:39:01.312Z,25.70
2022-10-11T23:41:29.058Z,24.65
2022-10-11T23:43:56.122Z,21.50
2022-10-11T23:46:23.283Z,21.48
2022-10-11T23:48:50.182Z,22.50
2022-10-11T23:51:17.057Z,27.45
2022-10-11T23:53:44.204Z,28.67
2022-10-11T23:56:11.586Z,24.83
2022-10-11T23:58:38.564Z,20.90
